WetterOnline ( https://www.wetteronline.ch )

Wetter aktuell Regensburg

Aktuelles Wetter: Regensburg/Oberhub (371m)

6-stündlich | Neueste Meldungen
Ortszeit Temperatur Wetter
So, 19.05. 14:00 23.3° C wolkenlos
So, 19.05. 8:00 12.6° C wolkig
So, 19.05. 2:00 11.4° C wolkenlos
Sa, 18.05. 20:00 18.8° C bedeckt
Sa, 18.05. 14:00 21.3° C fast wolkenlos
Sa, 18.05. 8:00 11.2° C wolkenlos
Sa, 18.05. 2:00 8.7° C wolkenlos
Fr, 17.05. 20:00 17.1° C wolkenlos
Ortszeit Temperatur Wetter
So, 19.05. 17:00 24.1° C leicht bewölkt
So, 19.05. 16:50 24.1° C leicht bewölkt
So, 19.05. 16:40 24.4° C leicht bewölkt
So, 19.05. 16:30 23.8° C bewölkt
So, 19.05. 16:20 23.8° C bewölkt
So, 19.05. 16:10 23.1° C wolkig
So, 19.05. 16:00 23.9° C wolkig
So, 19.05. 15:30 23.6° C leicht bewölkt
So, 19.05. 15:00 23.9° C fast wolkenlos
So, 19.05. 14:30 23.3° C fast wolkenlos
So, 19.05. 14:00 23.3° C wolkenlos
Ortszeit Relative Feuchte Sichtweite
So, 19.05. 14:00 33% 45 km
So, 19.05. 8:00 83% 16 km
So, 19.05. 2:00 87% 30 km
Sa, 18.05. 20:00 54% >70 km
Sa, 18.05. 14:00 39% >70 km
Sa, 18.05. 8:00 83% 35 km
Sa, 18.05. 2:00 89% 40 km
Fr, 17.05. 20:00 56% >70 km
Ortszeit Relative Feuchte Sichtweite
So, 19.05. 17:00 34% 50 km
So, 19.05. 16:50 34% -
So, 19.05. 16:40 35% -
So, 19.05. 16:30 31% >70 km
So, 19.05. 16:20 31% -
So, 19.05. 16:10 32% -
So, 19.05. 16:00 31% 65 km
So, 19.05. 15:30 28% 50 km
So, 19.05. 15:00 28% 45 km
So, 19.05. 14:30 28% 65 km
So, 19.05. 14:00 33% 45 km
Ortszeit Niederschlagsmenge Niederschlagsart
So, 19.05. 14:00 0.0 l/m2 in 6 Std. -
So, 19.05. 8:00 0.0 l/m2 in 12 Std. -
So, 19.05. 2:00 0.0 l/m2 in 6 Std. -
Sa, 18.05. 20:00 0.0 l/m2 in 12 Std. -
Sa, 18.05. 14:00 0.0 l/m2 in 6 Std. -
Sa, 18.05. 8:00 0.0 l/m2 in 12 Std. -
Sa, 18.05. 2:00 0.0 l/m2 in 6 Std. -
Fr, 17.05. 20:00 0.0 l/m2 in 12 Std. -
Ortszeit Niederschlagsmenge Niederschlagsart
So, 19.05. 17:00 0.0 l/m2 in 1 Std. -
So, 19.05. 16:50 keine Meldung -
So, 19.05. 16:40 keine Meldung -
So, 19.05. 16:30 0.0 l/m2 in 1 Std. -
So, 19.05. 16:20 keine Meldung -
So, 19.05. 16:10 keine Meldung -
So, 19.05. 16:00 0.0 l/m2 in 1 Std. -
So, 19.05. 15:30 0.0 l/m2 in 1 Std. -
So, 19.05. 15:00 0.0 l/m2 in 1 Std. -
So, 19.05. 14:30 0.0 l/m2 in 1 Std. -
So, 19.05. 14:00 0.0 l/m2 in 1 Std. -
Ortszeit Stärke Spitze Richtung
km/h Bft. km/h Grad Sektor
So, 19.05. 14:00 7 2 22 200° S
So, 19.05. 8:00 7 2 14 330° NW
So, 19.05. 2:00 7 2 13 360° N
Sa, 18.05. 20:00 9 2 28 30° NO
Sa, 18.05. 14:00 9 2 20 190° S
Sa, 18.05. 8:00 13 3 19 30° NO
Sa, 18.05. 2:00 7 2 22 10° N
Fr, 17.05. 20:00 14 3 25 40° NO
Ortszeit Stärke Spitze Richtung
km/h Bft. km/h Grad Sektor
So, 19.05. 17:00 11 2 22 40° NO
So, 19.05. 16:50 11 2 - 40° NO
So, 19.05. 16:40 7 2 - 50° NO
So, 19.05. 16:30 7 2 22 110° O
So, 19.05. 16:20 7 2 - 110° O
So, 19.05. 16:10 7 2 - 80° O
So, 19.05. 16:00 7 2 22 130° SO
So, 19.05. 15:30 7 2 20 100° O
So, 19.05. 15:00 7 2 19 140° SO
So, 19.05. 14:30 7 2 18 80° O
So, 19.05. 14:00 7 2 22 200° S
Ortszeit Untergrenze Bedeckung Gattung
total tief tief mittel hoch
So, 19.05. 14:00 - 0/8 0/8 - - -
So, 19.05. 8:00 3900 m 8/8 8/8 - - -
So, 19.05. 2:00 - 0/8 0/8 - - -
Sa, 18.05. 20:00 4500 m 8/8 8/8 - - -
Sa, 18.05. 14:00 9000 m 1/8 0/8 - - -
Sa, 18.05. 8:00 - 0/8 0/8 - - -
Sa, 18.05. 2:00 - 0/8 0/8 - - -
Fr, 17.05. 20:00 - 0/8 0/8 - - -
Ortszeit Bedeckungsgrad in Achtel und Wolkenuntergrenze
So, 19.05. 17:00 3(1800m)
So, 19.05. 16:50 3(1800m)
So, 19.05. 16:40 2(1800m) 4(6600m) 4(8700m)
So, 19.05. 16:30 6(6900m) 7(8700m)
So, 19.05. 16:20 6(6900m) 7(8700m)
So, 19.05. 16:10 2(1800m) 6(6900m) 7(8700m)
So, 19.05. 16:00 3(1800m) 6(8700m) 7(8700m)
So, 19.05. 15:30 1(7800m) 3(8400m) 5(9000m)
So, 19.05. 15:00 2(7800m)
So, 19.05. 14:30 1(9000m)
So, 19.05. 14:00 keine Wolken
Ortszeit Luftdruck NN (hPa) Tendenz (hPa in 3 Std.)
So, 19.05. 14:00 1001 - 0,9
So, 19.05. 8:00 1004 + 0,1
So, 19.05. 2:00 1004 - 0,7
Sa, 18.05. 20:00 1003 - 0,3
Sa, 18.05. 14:00 1004 - 0,8
Sa, 18.05. 8:00 1006 + 0,4
Sa, 18.05. 2:00 1007 - 0,1
Fr, 17.05. 20:00 1005 - 1,0
Ortszeit Luftdruck NN (hPa) Tendenz (hPa in 3 Std.)
So, 19.05. 17:00 1000 - 1,5
So, 19.05. 16:50 1000 keine Meldung
So, 19.05. 16:40 1000 keine Meldung
So, 19.05. 16:30 1000 - 1,6
So, 19.05. 16:20 1000 keine Meldung
So, 19.05. 16:10 1000 keine Meldung
So, 19.05. 16:00 1000 - 1,4
So, 19.05. 15:30 1001 - 1,1
So, 19.05. 15:00 1001 - 1,1
So, 19.05. 14:30 1001 - 0,9
So, 19.05. 14:00 1001 - 0,9
Ortszeit Schneehöhe (cm)
So, 19.05. 14:00 -
So, 19.05. 8:00 -
So, 19.05. 2:00 -
Sa, 18.05. 20:00 -
Sa, 18.05. 14:00 -
Sa, 18.05. 8:00 -
Sa, 18.05. 2:00 -
Fr, 17.05. 20:00 -
Ortszeit Schneehöhe (cm)
So, 19.05. 17:00 -
So, 19.05. 16:50 -
So, 19.05. 16:40 -
So, 19.05. 16:30 -
So, 19.05. 16:20 -
So, 19.05. 16:10 -
So, 19.05. 16:00 -
So, 19.05. 15:30 -
So, 19.05. 15:00 -
So, 19.05. 14:30 -
So, 19.05. 14:00 -
Link zu dieser Seite / Seite empfehlen

Das Wetter in ...